Lowlands Nello — 9V5332 — position and weather

sailwx.info

Track history (hours):
 
Tides and Currents Weather Stations Pressure Air Temp Water Temp Dewpoint Dewpoint Depression Visibility Wind Speed Wind Dir Waves Ship Positions

Lowlands Nello

Last reported at 2018-Apr-06 23:04 UTC. Time now 2018-Apr-23 15:03 UTC.
Position N 10°38' W 014°38'.
Warning: this ship's position is 16 days out of date.

Length 229 m; draft 7.3 m.

Type: Cargo ship. MMSI: 563029700.

Date/timePositionNaut miles runAvg speedWind from/ knotsBaromVisibWave heightAir tempDewpointWater temp
2018-Apr-06 23:04N 10°38' W 014°38'0 0.0
2018-Apr-06 13:18N 10°38' W 014°38'0 0.1
2018-Apr-06 12:57N 10°38' W 014°38'0 0.0
2018-Apr-06 08:00N 10°38' W 014°38'5 0.7
2018-Apr-06 01:11N 10°34' W 014°41'210.6
2018-Apr-06 00:58N 10°32' W 014°42'3 7.0
2018-Apr-06 00:29N 10°30' W 014°44'3 0.6
2018-Apr-05 19:24N 10°27' W 014°45'0 0.0
2018-Apr-05 12:54N 10°27' W 014°45'0 0.1
2018-Apr-05 12:30N 10°27' W 014°45'0 0.1
2018-Apr-05 12:00N 10°27' W 014°45'0 0.0
2018-Apr-04 21:27N 10°27' W 014°45'0 0.0
2018-Apr-04 11:54N 10°27' W 014°45'0 0.1
2018-Apr-04 11:30N 10°27' W 014°45'4 0.2
2018-Apr-03 12:13N 10°23' W 014°45'3 6.6
2018-Apr-03 11:46N 10°20' W 014°46'2 8.3
2018-Apr-03 11:30N 10°19' W 014°48'1812.4
2018-Apr-03 10:03N 10°11' W 015°05'1013.4
2018-Apr-03 09:17N 10°07' W 015°14'4213.6
2018-Apr-03 06:14N 10°03' W 015°56'1614.2
2018-Apr-03 05:07N 10°03' W 016°12'214.1
2018-Apr-03 05:00N 10°03' W 016°14'713.9
2018-Apr-03 04:30N 10°03' W 016°21'2613.0
2018-Apr-03 02:30N 10°14' W 016°45'7913.9
2018-Apr-02 20:51N 11°13' W 017°38'  
2018-Mar-30 14:43N 28°04' W 013°39'313.9
2018-Mar-30 14:28N 28°07' W 013°37'2913.7
2018-Mar-30 12:19N 28°34' W 013°24'413.6
2018-Mar-30 12:00N 28°38' W 013°22'713.5
2018-Mar-30 11:30N 28°44' W 013°20'713.2
2018-Mar-30 10:58N 28°51' W 013°16'613.2
2018-Mar-30 10:30N 28°56' W 013°14'713.2
2018-Mar-30 09:58N 29°03' W 013°10'52013.6
2018-Mar-28 19:40N 37°33' W 011°08'3113.0
2018-Mar-28 17:18N 38°04' W 011°05'513.0
2018-Mar-28 16:56N 38°08' W 011°05'  
Track history (hours):
 
Tides and Currents Weather Stations Pressure Air Temp Water Temp Dewpoint Dewpoint Depression Visibility Wind Speed Wind Dir Waves Ship Positions

Lowlands Nello

Last reported at 2018-Apr-06 23:04 UTC. Time now 2018-Apr-23 15:03 UTC.
Position N 10°38' W 014°38'.
Warning: this ship's position is 16 days out of date.

Length 229 m; draft 7.3 m.

Type: Cargo ship. MMSI: 563029700.

Date/timePositionNaut miles runAvg speedWind from/ knotsBaromVisibWave heightAir tempDewpointWater temp
2018-Apr-06 23:04N 10°38' W 014°38'0 0.0
2018-Apr-06 13:18N 10°38' W 014°38'0 0.1
2018-Apr-06 12:57N 10°38' W 014°38'0 0.0
2018-Apr-06 08:00N 10°38' W 014°38'5 0.7
2018-Apr-06 01:11N 10°34' W 014°41'210.6
2018-Apr-06 00:58N 10°32' W 014°42'3 7.0
2018-Apr-06 00:29N 10°30' W 014°44'3 0.6
2018-Apr-05 19:24N 10°27' W 014°45'0 0.0
2018-Apr-05 12:54N 10°27' W 014°45'0 0.1
2018-Apr-05 12:30N 10°27' W 014°45'0 0.1
2018-Apr-05 12:00N 10°27' W 014°45'0 0.0
2018-Apr-04 21:27N 10°27' W 014°45'0 0.0
2018-Apr-04 11:54N 10°27' W 014°45'0 0.1
2018-Apr-04 11:30N 10°27' W 014°45'4 0.2
2018-Apr-03 12:13N 10°23' W 014°45'3 6.6
2018-Apr-03 11:46N 10°20' W 014°46'2 8.3
2018-Apr-03 11:30N 10°19' W 014°48'1812.4
2018-Apr-03 10:03N 10°11' W 015°05'1013.4
2018-Apr-03 09:17N 10°07' W 015°14'4213.6
2018-Apr-03 06:14N 10°03' W 015°56'1614.2
2018-Apr-03 05:07N 10°03' W 016°12'214.1
2018-Apr-03 05:00N 10°03' W 016°14'713.9
2018-Apr-03 04:30N 10°03' W 016°21'2613.0
2018-Apr-03 02:30N 10°14' W 016°45'7913.9
2018-Apr-02 20:51N 11°13' W 017°38'  
2018-Mar-30 14:43N 28°04' W 013°39'313.9
2018-Mar-30 14:28N 28°07' W 013°37'2913.7
2018-Mar-30 12:19N 28°34' W 013°24'413.6
2018-Mar-30 12:00N 28°38' W 013°22'713.5
2018-Mar-30 11:30N 28°44' W 013°20'713.2
2018-Mar-30 10:58N 28°51' W 013°16'613.2
2018-Mar-30 10:30N 28°56' W 013°14'713.2
2018-Mar-30 09:58N 29°03' W 013°10'52013.6
2018-Mar-28 19:40N 37°33' W 011°08'3113.0
2018-Mar-28 17:18N 38°04' W 011°05'513.0
2018-Mar-28 16:56N 38°08' W 011°05'  

Dump ship's entire track history